sensor_id;sensor_type;location;lat;lon;timestamp;temperature;humidity
1355;DHT22;671;48.972;9.276;2022-10-26T00:01:08;13.30;99.90
1355;DHT22;671;48.972;9.276;2022-10-26T00:03:35;13.30;99.90
1355;DHT22;671;48.972;9.276;2022-10-26T00:06:07;13.20;99.90
1355;DHT22;671;48.972;9.276;2022-10-26T00:08:35;13.20;99.90
1355;DHT22;671;48.972;9.276;2022-10-26T00:11:02;13.20;99.90
1355;DHT22;671;48.972;9.276;2022-10-26T00:13:28;13.30;99.90
1355;DHT22;671;48.972;9.276;2022-10-26T00:15:55;13.30;99.90
1355;DHT22;671;48.972;9.276;2022-10-26T00:18:22;13.30;99.90
1355;DHT22;671;48.972;9.276;2022-10-26T00:20:49;13.30;99.90
1355;DHT22;671;48.972;9.276;2022-10-26T00:23:15;13.30;99.90
1355;DHT22;671;48.972;9.276;2022-10-26T00:25:43;13.40;99.90
1355;DHT22;671;48.972;9.276;2022-10-26T00:28:09;13.30;99.90
1355;DHT22;671;48.972;9.276;2022-10-26T00:30:39;13.40;99.90
1355;DHT22;671;48.972;9.276;2022-10-26T00:33:08;13.40;99.90
1355;DHT22;671;48.972;9.276;2022-10-26T00:35:34;13.30;99.90
1355;DHT22;671;48.972;9.276;2022-10-26T00:38:01;13.30;99.90
1355;DHT22;671;48.972;9.276;2022-10-26T00:40:28;13.40;99.90
1355;DHT22;671;48.972;9.276;2022-10-26T00:42:55;13.40;99.90
1355;DHT22;671;48.972;9.276;2022-10-26T00:45:25;13.30;99.90
1355;DHT22;671;48.972;9.276;2022-10-26T00:48:06;13.30;99.90
1355;DHT22;671;48.972;9.276;2022-10-26T00:50:42;13.40;99.90
1355;DHT22;671;48.972;9.276;2022-10-26T00:53:11;13.30;99.90
1355;DHT22;671;48.972;9.276;2022-10-26T00:55:41;13.40;99.90
1355;DHT22;671;48.972;9.276;2022-10-26T00:58:09;13.40;99.90
1355;DHT22;671;48.972;9.276;2022-10-26T01:00:36;13.40;99.90
1355;DHT22;671;48.972;9.276;2022-10-26T01:03:06;13.40;99.90
1355;DHT22;671;48.972;9.276;2022-10-26T01:05:35;13.40;99.90
1355;DHT22;671;48.972;9.276;2022-10-26T01:08:02;13.30;99.90
1355;DHT22;671;48.972;9.276;2022-10-26T01:10:29;13.30;99.90
1355;DHT22;671;48.972;9.276;2022-10-26T01:12:57;13.30;99.90
1355;DHT22;671;48.972;9.276;2022-10-26T01:15:35;13.30;99.90
1355;DHT22;671;48.972;9.276;2022-10-26T01:18:11;13.40;99.90
1355;DHT22;671;48.972;9.276;2022-10-26T01:23:36;13.40;99.90
1355;DHT22;671;48.972;9.276;2022-10-26T01:34:43;13.50;99.90
1355;DHT22;671;48.972;9.276;2022-10-26T01:37:18;13.50;99.90
1355;DHT22;671;48.972;9.276;2022-10-26T01:39:52;13.60;99.90
1355;DHT22;671;48.972;9.276;2022-10-26T01:42:21;13.60;99.90
1355;DHT22;671;48.972;9.276;2022-10-26T01:44:52;13.60;99.90
1355;DHT22;671;48.972;9.276;2022-10-26T01:47:21;13.60;99.90
1355;DHT22;671;48.972;9.276;2022-10-26T01:49:52;13.60;99.90
1355;DHT22;671;48.972;9.276;2022-10-26T01:52:20;13.60;99.90
1355;DHT22;671;48.972;9.276;2022-10-26T01:54:47;13.60;99.90
1355;DHT22;671;48.972;9.276;2022-10-26T01:57:16;13.70;99.90
1355;DHT22;671;48.972;9.276;2022-10-26T02:15:53;13.70;99.90
1355;DHT22;671;48.972;9.276;2022-10-26T02:21:04;13.70;99.90
1355;DHT22;671;48.972;9.276;2022-10-26T02:23:33;13.70;99.90
1355;DHT22;671;48.972;9.276;2022-10-26T02:26:02;13.70;99.90
1355;DHT22;671;48.972;9.276;2022-10-26T02:28:34;13.70;99.90
1355;DHT22;671;48.972;9.276;2022-10-26T02:31:03;13.70;99.90
1355;DHT22;671;48.972;9.276;2022-10-26T02:33:34;13.70;99.90
1355;DHT22;671;48.972;9.276;2022-10-26T02:36:04;13.70;99.90
1355;DHT22;671;48.972;9.276;2022-10-26T02:38:32;13.80;99.90
1355;DHT22;671;48.972;9.276;2022-10-26T02:41:00;13.70;99.90
1355;DHT22;671;48.972;9.276;2022-10-26T02:43:29;13.80;99.90
1355;DHT22;671;48.972;9.276;2022-10-26T02:46:00;13.80;99.90
1355;DHT22;671;48.972;9.276;2022-10-26T02:48:27;13.70;99.90
1355;DHT22;671;48.972;9.276;2022-10-26T02:51:17;13.80;99.90
1355;DHT22;671;48.972;9.276;2022-10-26T02:53:48;13.70;99.90
1355;DHT22;671;48.972;9.276;2022-10-26T02:56:28;13.70;99.90
1355;DHT22;671;48.972;9.276;2022-10-26T02:59:01;13.70;99.90
1355;DHT22;671;48.972;9.276;2022-10-26T03:01:29;13.60;99.90
1355;DHT22;671;48.972;9.276;2022-10-26T03:03:57;13.60;99.90
1355;DHT22;671;48.972;9.276;2022-10-26T03:06:24;13.60;99.90
1355;DHT22;671;48.972;9.276;2022-10-26T03:08:51;13.60;99.90
1355;DHT22;671;48.972;9.276;2022-10-26T03:11:17;13.60;99.90
1355;DHT22;671;48.972;9.276;2022-10-26T03:13:44;13.60;99.90
1355;DHT22;671;48.972;9.276;2022-10-26T03:16:11;13.60;99.90
1355;DHT22;671;48.972;9.276;2022-10-26T03:18:37;13.70;99.90
1355;DHT22;671;48.972;9.276;2022-10-26T03:21:04;13.70;99.90
1355;DHT22;671;48.972;9.276;2022-10-26T03:23:30;13.70;99.90
1355;DHT22;671;48.972;9.276;2022-10-26T03:25:57;13.70;99.90
1355;DHT22;671;48.972;9.276;2022-10-26T03:28:24;13.70;99.90
1355;DHT22;671;48.972;9.276;2022-10-26T03:30:51;13.70;99.90
1355;DHT22;671;48.972;9.276;2022-10-26T03:33:17;13.70;99.90
1355;DHT22;671;48.972;9.276;2022-10-26T03:35:44;13.70;99.90
1355;DHT22;671;48.972;9.276;2022-10-26T03:38:10;13.70;99.90
1355;DHT22;671;48.972;9.276;2022-10-26T03:40:37;13.70;99.90
1355;DHT22;671;48.972;9.276;2022-10-26T03:43:03;13.70;99.90
1355;DHT22;671;48.972;9.276;2022-10-26T03:45:29;13.70;99.90
1355;DHT22;671;48.972;9.276;2022-10-26T03:47:56;13.60;99.90
1355;DHT22;671;48.972;9.276;2022-10-26T03:50:22;13.70;99.90
1355;DHT22;671;48.972;9.276;2022-10-26T03:52:49;13.70;99.90
1355;DHT22;671;48.972;9.276;2022-10-26T03:55:15;13.70;99.90
1355;DHT22;671;48.972;9.276;2022-10-26T03:57:43;13.70;99.90
1355;DHT22;671;48.972;9.276;2022-10-26T04:00:11;13.70;99.90
1355;DHT22;671;48.972;9.276;2022-10-26T04:02:42;13.70;99.90
1355;DHT22;671;48.972;9.276;2022-10-26T04:05:08;13.70;99.90
1355;DHT22;671;48.972;9.276;2022-10-26T04:07:35;13.70;99.90
1355;DHT22;671;48.972;9.276;2022-10-26T04:10:02;13.70;99.90
1355;DHT22;671;48.972;9.276;2022-10-26T04:12:28;13.70;99.90
1355;DHT22;671;48.972;9.276;2022-10-26T04:14:55;13.70;99.90
1355;DHT22;671;48.972;9.276;2022-10-26T04:17:23;13.80;99.90
1355;DHT22;671;48.972;9.276;2022-10-26T04:19:50;13.80;99.90
1355;DHT22;671;48.972;9.276;2022-10-26T04:22:16;13.90;99.90
1355;DHT22;671;48.972;9.276;2022-10-26T04:24:43;13.90;99.90
1355;DHT22;671;48.972;9.276;2022-10-26T04:27:09;13.90;99.90
1355;DHT22;671;48.972;9.276;2022-10-26T04:29:36;13.90;99.90
1355;DHT22;671;48.972;9.276;2022-10-26T04:32:02;13.90;99.90
1355;DHT22;671;48.972;9.276;2022-10-26T04:34:29;14.00;99.90
1355;DHT22;671;48.972;9.276;2022-10-26T04:36:55;14.00;99.90
1355;DHT22;671;48.972;9.276;2022-10-26T04:39:22;14.00;99.90
1355;DHT22;671;48.972;9.276;2022-10-26T04:41:48;14.00;99.90
1355;DHT22;671;48.972;9.276;2022-10-26T04:44:15;14.00;99.90
1355;DHT22;671;48.972;9.276;2022-10-26T04:46:41;14.00;99.90
1355;DHT22;671;48.972;9.276;2022-10-26T04:49:08;14.00;99.90
1355;DHT22;671;48.972;9.276;2022-10-26T04:51:34;14.00;99.90
1355;DHT22;671;48.972;9.276;2022-10-26T04:54:01;14.10;99.90
1355;DHT22;671;48.972;9.276;2022-10-26T04:56:29;14.10;99.90
1355;DHT22;671;48.972;9.276;2022-10-26T04:58:55;14.10;99.90
1355;DHT22;671;48.972;9.276;2022-10-26T05:01:21;14.10;99.90
1355;DHT22;671;48.972;9.276;2022-10-26T05:03:49;14.10;99.90
1355;DHT22;671;48.972;9.276;2022-10-26T05:06:16;14.10;99.90
1355;DHT22;671;48.972;9.276;2022-10-26T05:08:42;14.10;99.90
1355;DHT22;671;48.972;9.276;2022-10-26T05:11:09;14.00;99.90
1355;DHT22;671;48.972;9.276;2022-10-26T05:13:35;14.00;99.90
1355;DHT22;671;48.972;9.276;2022-10-26T05:16:02;14.00;99.90
1355;DHT22;671;48.972;9.276;2022-10-26T05:18:28;14.00;99.90
1355;DHT22;671;48.972;9.276;2022-10-26T05:20:55;14.00;99.90
1355;DHT22;671;48.972;9.276;2022-10-26T05:23:21;14.00;99.90
1355;DHT22;671;48.972;9.276;2022-10-26T05:25:48;14.00;99.90
1355;DHT22;671;48.972;9.276;2022-10-26T05:28:15;14.00;99.90
1355;DHT22;671;48.972;9.276;2022-10-26T05:30:44;14.10;99.90
1355;DHT22;671;48.972;9.276;2022-10-26T05:33:12;14.00;99.90
1355;DHT22;671;48.972;9.276;2022-10-26T05:35:39;14.10;99.90
1355;DHT22;671;48.972;9.276;2022-10-26T05:38:14;14.10;99.90
1355;DHT22;671;48.972;9.276;2022-10-26T05:40:48;14.10;99.90
1355;DHT22;671;48.972;9.276;2022-10-26T05:43:15;14.10;99.90
1355;DHT22;671;48.972;9.276;2022-10-26T05:45:42;14.10;99.90
1355;DHT22;671;48.972;9.276;2022-10-26T05:48:09;14.10;99.90
1355;DHT22;671;48.972;9.276;2022-10-26T05:50:35;14.10;99.90
1355;DHT22;671;48.972;9.276;2022-10-26T05:53:02;14.10;99.90
1355;DHT22;671;48.972;9.276;2022-10-26T05:55:28;14.20;99.90
1355;DHT22;671;48.972;9.276;2022-10-26T05:57:55;14.20;99.90
1355;DHT22;671;48.972;9.276;2022-10-26T06:00:25;14.20;99.90
1355;DHT22;671;48.972;9.276;2022-10-26T06:05:54;14.20;99.90
1355;DHT22;671;48.972;9.276;2022-10-26T06:08:23;14.30;99.90
1355;DHT22;671;48.972;9.276;2022-10-26T06:10:51;14.30;99.90
1355;DHT22;671;48.972;9.276;2022-10-26T06:13:19;14.30;99.90
1355;DHT22;671;48.972;9.276;2022-10-26T06:16:19;14.30;99.90
1355;DHT22;671;48.972;9.276;2022-10-26T06:21:52;14.40;99.90
1355;DHT22;671;48.972;9.276;2022-10-26T06:30:00;14.50;99.90
1355;DHT22;671;48.972;9.276;2022-10-26T06:32:27;14.50;99.90
1355;DHT22;671;48.972;9.276;2022-10-26T06:38:02;14.50;99.90
1355;DHT22;671;48.972;9.276;2022-10-26T06:40:31;14.50;99.90
1355;DHT22;671;48.972;9.276;2022-10-26T06:42:59;14.60;99.90
1355;DHT22;671;48.972;9.276;2022-10-26T06:45:26;14.60;99.90
1355;DHT22;671;48.972;9.276;2022-10-26T06:48:16;14.60;99.90
1355;DHT22;671;48.972;9.276;2022-10-26T06:50:50;14.60;99.90
1355;DHT22;671;48.972;9.276;2022-10-26T06:55:47;14.60;99.90
1355;DHT22;671;48.972;9.276;2022-10-26T06:58:24;14.60;99.90
1355;DHT22;671;48.972;9.276;2022-10-26T07:00:53;14.70;99.90
1355;DHT22;671;48.972;9.276;2022-10-26T07:03:20;14.70;99.90
1355;DHT22;671;48.972;9.276;2022-10-26T07:05:47;14.70;99.90
1355;DHT22;671;48.972;9.276;2022-10-26T07:08:14;14.70;99.90
1355;DHT22;671;48.972;9.276;2022-10-26T07:10:41;14.70;99.90
1355;DHT22;671;48.972;9.276;2022-10-26T07:13:09;14.80;99.90
1355;DHT22;671;48.972;9.276;2022-10-26T07:15:37;14.80;99.90
1355;DHT22;671;48.972;9.276;2022-10-26T07:18:06;14.70;99.90
1355;DHT22;671;48.972;9.276;2022-10-26T07:20:40;14.90;99.90
1355;DHT22;671;48.972;9.276;2022-10-26T07:23:08;14.90;99.90
1355;DHT22;671;48.972;9.276;2022-10-26T07:25:37;15.00;99.90
1355;DHT22;671;48.972;9.276;2022-10-26T07:28:07;15.00;99.90
1355;DHT22;671;48.972;9.276;2022-10-26T07:30:36;15.10;99.90
1355;DHT22;671;48.972;9.276;2022-10-26T07:33:12;15.10;99.90
1355;DHT22;671;48.972;9.276;2022-10-26T07:35:39;15.10;99.90
1355;DHT22;671;48.972;9.276;2022-10-26T07:38:06;15.10;99.90
1355;DHT22;671;48.972;9.276;2022-10-26T07:40:33;15.10;99.90
1355;DHT22;671;48.972;9.276;2022-10-26T07:43:00;15.10;99.90
1355;DHT22;671;48.972;9.276;2022-10-26T07:45:28;15.10;99.90
1355;DHT22;671;48.972;9.276;2022-10-26T07:47:55;15.10;99.90
1355;DHT22;671;48.972;9.276;2022-10-26T07:50:22;15.10;99.90
1355;DHT22;671;48.972;9.276;2022-10-26T07:52:49;15.20;99.90
1355;DHT22;671;48.972;9.276;2022-10-26T07:55:15;15.30;99.90
1355;DHT22;671;48.972;9.276;2022-10-26T07:57:42;15.30;99.90
1355;DHT22;671;48.972;9.276;2022-10-26T08:00:09;15.30;99.90
1355;DHT22;671;48.972;9.276;2022-10-26T08:02:35;15.30;99.90
1355;DHT22;671;48.972;9.276;2022-10-26T08:05:03;15.30;99.90
1355;DHT22;671;48.972;9.276;2022-10-26T08:07:29;15.40;99.90
1355;DHT22;671;48.972;9.276;2022-10-26T08:09:56;15.40;99.90
1355;DHT22;671;48.972;9.276;2022-10-26T08:12:22;15.50;99.90
1355;DHT22;671;48.972;9.276;2022-10-26T08:14:49;15.50;99.90
1355;DHT22;671;48.972;9.276;2022-10-26T08:17:15;15.60;99.90
1355;DHT22;671;48.972;9.276;2022-10-26T08:19:42;15.60;99.90
1355;DHT22;671;48.972;9.276;2022-10-26T08:22:08;15.70;99.90
1355;DHT22;671;48.972;9.276;2022-10-26T08:24:35;15.80;99.90
1355;DHT22;671;48.972;9.276;2022-10-26T08:27:01;15.90;99.90
1355;DHT22;671;48.972;9.276;2022-10-26T08:29:28;16.00;99.90
1355;DHT22;671;48.972;9.276;2022-10-26T08:31:54;16.10;99.90
1355;DHT22;671;48.972;9.276;2022-10-26T08:34:22;16.30;99.90
1355;DHT22;671;48.972;9.276;2022-10-26T08:36:48;16.30;99.90
1355;DHT22;671;48.972;9.276;2022-10-26T08:39:15;16.50;99.90
1355;DHT22;671;48.972;9.276;2022-10-26T08:41:46;16.50;99.90
1355;DHT22;671;48.972;9.276;2022-10-26T08:44:32;16.60;99.90
1355;DHT22;671;48.972;9.276;2022-10-26T08:47:12;16.60;99.90
1355;DHT22;671;48.972;9.276;2022-10-26T08:52:30;16.70;99.90
1355;DHT22;671;48.972;9.276;2022-10-26T08:54:59;16.70;99.90
1355;DHT22;671;48.972;9.276;2022-10-26T08:57:33;16.80;99.90
1355;DHT22;671;48.972;9.276;2022-10-26T09:00:06;16.80;99.90
1355;DHT22;671;48.972;9.276;2022-10-26T09:02:40;16.80;99.90
1355;DHT22;671;48.972;9.276;2022-10-26T09:05:18;16.80;99.90
1355;DHT22;671;48.972;9.276;2022-10-26T09:08:09;16.90;99.90
1355;DHT22;671;48.972;9.276;2022-10-26T09:16:34;17.00;99.90
1355;DHT22;671;48.972;9.276;2022-10-26T09:24:43;17.40;99.90
1355;DHT22;671;48.972;9.276;2022-10-26T09:29:59;17.70;99.90
1355;DHT22;671;48.972;9.276;2022-10-26T09:32:35;17.80;99.90
1355;DHT22;671;48.972;9.276;2022-10-26T09:35:08;18.00;99.90
1355;DHT22;671;48.972;9.276;2022-10-26T09:37:42;18.20;99.90
1355;DHT22;671;48.972;9.276;2022-10-26T09:43:04;18.60;99.90
1355;DHT22;671;48.972;9.276;2022-10-26T09:45:37;18.80;99.90
1355;DHT22;671;48.972;9.276;2022-10-26T09:48:17;18.90;99.90
1355;DHT22;671;48.972;9.276;2022-10-26T09:50:47;18.90;99.90
1355;DHT22;671;48.972;9.276;2022-10-26T09:53:15;18.90;99.90
1355;DHT22;671;48.972;9.276;2022-10-26T09:55:45;18.90;99.90
1355;DHT22;671;48.972;9.276;2022-10-26T09:58:39;18.90;99.90
1355;DHT22;671;48.972;9.276;2022-10-26T10:01:32;18.90;99.90
1355;DHT22;671;48.972;9.276;2022-10-26T10:04:25;18.90;99.90
1355;DHT22;671;48.972;9.276;2022-10-26T10:07:11;19.00;99.90
1355;DHT22;671;48.972;9.276;2022-10-26T10:09:39;19.00;99.90
1355;DHT22;671;48.972;9.276;2022-10-26T10:12:15;19.10;99.90
1355;DHT22;671;48.972;9.276;2022-10-26T10:14:55;19.10;99.90
1355;DHT22;671;48.972;9.276;2022-10-26T10:17:22;19.10;99.90
1355;DHT22;671;48.972;9.276;2022-10-26T10:19:50;19.10;99.90
1355;DHT22;671;48.972;9.276;2022-10-26T10:22:24;19.10;99.90
1355;DHT22;671;48.972;9.276;2022-10-26T10:27:20;19.20;99.90
1355;DHT22;671;48.972;9.276;2022-10-26T10:29:50;19.20;99.90
1355;DHT22;671;48.972;9.276;2022-10-26T10:32:22;19.30;99.90
1355;DHT22;671;48.972;9.276;2022-10-26T10:34:50;19.30;99.90
1355;DHT22;671;48.972;9.276;2022-10-26T10:37:37;19.40;99.90
1355;DHT22;671;48.972;9.276;2022-10-26T10:42:41;19.70;99.90
1355;DHT22;671;48.972;9.276;2022-10-26T10:45:25;19.80;99.90
1355;DHT22;671;48.972;9.276;2022-10-26T10:50:39;19.90;99.90
1355;DHT22;671;48.972;9.276;2022-10-26T10:53:48;20.10;99.90
1355;DHT22;671;48.972;9.276;2022-10-26T10:56:34;20.20;99.90
1355;DHT22;671;48.972;9.276;2022-10-26T10:59:20;20.20;99.90
1355;DHT22;671;48.972;9.276;2022-10-26T11:02:22;20.20;99.90
1355;DHT22;671;48.972;9.276;2022-10-26T11:07:41;20.20;99.90
1355;DHT22;671;48.972;9.276;2022-10-26T11:10:14;20.20;99.90
1355;DHT22;671;48.972;9.276;2022-10-26T11:13:11;20.30;99.90
1355;DHT22;671;48.972;9.276;2022-10-26T11:15:42;20.40;99.90
1355;DHT22;671;48.972;9.276;2022-10-26T11:18:18;20.40;99.90
1355;DHT22;671;48.972;9.276;2022-10-26T11:20:52;20.40;99.90
1355;DHT22;671;48.972;9.276;2022-10-26T11:23:36;20.40;99.90
1355;DHT22;671;48.972;9.276;2022-10-26T11:26:53;20.30;99.90
1355;DHT22;671;48.972;9.276;2022-10-26T11:31:53;20.40;99.90
1355;DHT22;671;48.972;9.276;2022-10-26T11:35:09;20.40;99.90
1355;DHT22;671;48.972;9.276;2022-10-26T11:37:23;20.40;99.90
1355;DHT22;671;48.972;9.276;2022-10-26T11:40:26;20.40;99.90
1355;DHT22;671;48.972;9.276;2022-10-26T11:43:05;20.40;99.90
1355;DHT22;671;48.972;9.276;2022-10-26T11:45:44;20.40;99.90
1355;DHT22;671;48.972;9.276;2022-10-26T11:48:27;20.40;99.90
1355;DHT22;671;48.972;9.276;2022-10-26T11:50:57;20.50;99.90
1355;DHT22;671;48.972;9.276;2022-10-26T11:53:29;20.50;99.90
1355;DHT22;671;48.972;9.276;2022-10-26T11:55:58;20.60;99.90
1355;DHT22;671;48.972;9.276;2022-10-26T11:58:26;20.70;99.90
1355;DHT22;671;48.972;9.276;2022-10-26T12:01:02;20.80;99.90
1355;DHT22;671;48.972;9.276;2022-10-26T12:03:36;20.90;99.90
1355;DHT22;671;48.972;9.276;2022-10-26T12:06:03;20.90;99.90
1355;DHT22;671;48.972;9.276;2022-10-26T12:08:37;21.00;99.90
1355;DHT22;671;48.972;9.276;2022-10-26T12:14:23;21.20;99.90
1355;DHT22;671;48.972;9.276;2022-10-26T12:22:30;21.30;99.90
1355;DHT22;671;48.972;9.276;2022-10-26T12:35:48;21.40;99.90
1355;DHT22;671;48.972;9.276;2022-10-26T12:41:17;21.40;99.90
1355;DHT22;671;48.972;9.276;2022-10-26T12:43:45;21.50;99.90
1355;DHT22;671;48.972;9.276;2022-10-26T12:56:58;21.60;99.90
1355;DHT22;671;48.972;9.276;2022-10-26T13:05:21;21.80;99.90
1355;DHT22;671;48.972;9.276;2022-10-26T13:08:01;21.80;99.90
1355;DHT22;671;48.972;9.276;2022-10-26T13:10:27;21.80;99.90
1355;DHT22;671;48.972;9.276;2022-10-26T13:12:55;21.80;99.90
1355;DHT22;671;48.972;9.276;2022-10-26T13:18:17;21.80;99.90
1355;DHT22;671;48.972;9.276;2022-10-26T13:21:14;21.80;99.90
1355;DHT22;671;48.972;9.276;2022-10-26T13:23:45;21.80;99.90
1355;DHT22;671;48.972;9.276;2022-10-26T13:26:17;21.80;99.90
1355;DHT22;671;48.972;9.276;2022-10-26T13:34:09;22.00;99.90
1355;DHT22;671;48.972;9.276;2022-10-26T13:36:45;22.20;99.90
1355;DHT22;671;48.972;9.276;2022-10-26T13:39:28;22.20;99.90
1355;DHT22;671;48.972;9.276;2022-10-26T13:41:56;22.20;99.90
1355;DHT22;671;48.972;9.276;2022-10-26T13:44:46;22.10;99.90
1355;DHT22;671;48.972;9.276;2022-10-26T13:47:26;22.10;99.90
1355;DHT22;671;48.972;9.276;2022-10-26T13:49:58;22.00;99.90
1355;DHT22;671;48.972;9.276;2022-10-26T13:52:34;22.00;99.90
1355;DHT22;671;48.972;9.276;2022-10-26T13:55:07;22.10;99.90
1355;DHT22;671;48.972;9.276;2022-10-26T13:57:38;22.10;99.90
1355;DHT22;671;48.972;9.276;2022-10-26T14:00:16;22.20;99.90
1355;DHT22;671;48.972;9.276;2022-10-26T14:02:44;22.20;99.90
1355;DHT22;671;48.972;9.276;2022-10-26T14:05:13;22.30;99.90
1355;DHT22;671;48.972;9.276;2022-10-26T14:10:45;22.30;99.90
1355;DHT22;671;48.972;9.276;2022-10-26T14:13:12;22.30;99.90
1355;DHT22;671;48.972;9.276;2022-10-26T14:15:42;22.20;99.90
1355;DHT22;671;48.972;9.276;2022-10-26T14:18:19;22.20;99.90
1355;DHT22;671;48.972;9.276;2022-10-26T14:20:52;22.20;99.90
1355;DHT22;671;48.972;9.276;2022-10-26T14:23:48;22.10;99.90
1355;DHT22;671;48.972;9.276;2022-10-26T14:26:25;22.00;99.90
1355;DHT22;671;48.972;9.276;2022-10-26T14:28:57;22.00;99.90
1355;DHT22;671;48.972;9.276;2022-10-26T14:33:54;22.00;99.90
1355;DHT22;671;48.972;9.276;2022-10-26T14:36:26;21.90;99.90
1355;DHT22;671;48.972;9.276;2022-10-26T14:38:58;21.90;99.90
1355;DHT22;671;48.972;9.276;2022-10-26T14:41:27;21.80;99.90
1355;DHT22;671;48.972;9.276;2022-10-26T14:43:55;21.80;99.90
1355;DHT22;671;48.972;9.276;2022-10-26T14:46:23;21.80;99.90
1355;DHT22;671;48.972;9.276;2022-10-26T14:48:55;21.70;99.90
1355;DHT22;671;48.972;9.276;2022-10-26T14:51:27;21.70;99.90
1355;DHT22;671;48.972;9.276;2022-10-26T14:53:57;21.60;99.90
1355;DHT22;671;48.972;9.276;2022-10-26T14:56:38;21.60;99.90
1355;DHT22;671;48.972;9.276;2022-10-26T15:01:52;21.60;99.90
1355;DHT22;671;48.972;9.276;2022-10-26T15:04:30;21.60;99.90
1355;DHT22;671;48.972;9.276;2022-10-26T15:07:22;21.50;99.90
1355;DHT22;671;48.972;9.276;2022-10-26T15:09:51;21.50;99.90
1355;DHT22;671;48.972;9.276;2022-10-26T15:15:19;21.40;99.90
1355;DHT22;671;48.972;9.276;2022-10-26T15:17:54;21.40;99.90
1355;DHT22;671;48.972;9.276;2022-10-26T15:20:26;21.30;99.90
1355;DHT22;671;48.972;9.276;2022-10-26T15:22:58;21.30;99.90
1355;DHT22;671;48.972;9.276;2022-10-26T15:25:27;21.20;99.90
1355;DHT22;671;48.972;9.276;2022-10-26T15:28:17;21.20;99.90
1355;DHT22;671;48.972;9.276;2022-10-26T15:31:06;21.10;99.90
1355;DHT22;671;48.972;9.276;2022-10-26T15:36:24;21.00;99.90
1355;DHT22;671;48.972;9.276;2022-10-26T15:38:51;20.90;99.90
1355;DHT22;671;48.972;9.276;2022-10-26T15:41:25;20.80;99.90
1355;DHT22;671;48.972;9.276;2022-10-26T15:43:54;20.80;99.90
1355;DHT22;671;48.972;9.276;2022-10-26T15:46:29;20.60;99.90
1355;DHT22;671;48.972;9.276;2022-10-26T15:49:16;20.50;99.90
1355;DHT22;671;48.972;9.276;2022-10-26T15:51:47;20.40;99.90
1355;DHT22;671;48.972;9.276;2022-10-26T15:54:14;20.30;99.90
1355;DHT22;671;48.972;9.276;2022-10-26T15:56:41;20.20;99.90
1355;DHT22;671;48.972;9.276;2022-10-26T15:59:18;20.00;99.90
1355;DHT22;671;48.972;9.276;2022-10-26T16:01:45;19.90;99.90
1355;DHT22;671;48.972;9.276;2022-10-26T16:04:11;19.70;99.90
1355;DHT22;671;48.972;9.276;2022-10-26T16:06:40;19.60;99.90
1355;DHT22;671;48.972;9.276;2022-10-26T16:09:14;19.50;99.90
1355;DHT22;671;48.972;9.276;2022-10-26T16:11:42;19.30;99.90
1355;DHT22;671;48.972;9.276;2022-10-26T16:14:09;19.20;99.90
1355;DHT22;671;48.972;9.276;2022-10-26T16:16:36;19.10;99.90
1355;DHT22;671;48.972;9.276;2022-10-26T16:19:03;19.00;99.90
1355;DHT22;671;48.972;9.276;2022-10-26T16:21:29;18.90;99.90
1355;DHT22;671;48.972;9.276;2022-10-26T16:23:56;18.80;99.90
1355;DHT22;671;48.972;9.276;2022-10-26T16:26:23;18.70;99.90
1355;DHT22;671;48.972;9.276;2022-10-26T16:28:50;18.60;99.90
1355;DHT22;671;48.972;9.276;2022-10-26T16:31:18;18.50;99.90
1355;DHT22;671;48.972;9.276;2022-10-26T16:33:45;18.40;99.90
1355;DHT22;671;48.972;9.276;2022-10-26T16:36:12;18.30;99.90
1355;DHT22;671;48.972;9.276;2022-10-26T16:38:38;18.20;99.90
1355;DHT22;671;48.972;9.276;2022-10-26T16:41:14;18.10;99.90
1355;DHT22;671;48.972;9.276;2022-10-26T16:43:43;18.00;99.90
1355;DHT22;671;48.972;9.276;2022-10-26T16:46:18;18.00;99.90
1355;DHT22;671;48.972;9.276;2022-10-26T16:48:46;17.90;99.90
1355;DHT22;671;48.972;9.276;2022-10-26T16:51:15;17.80;99.90
1355;DHT22;671;48.972;9.276;2022-10-26T16:53:42;17.70;99.90
1355;DHT22;671;48.972;9.276;2022-10-26T16:56:11;17.70;99.90
1355;DHT22;671;48.972;9.276;2022-10-26T16:58:39;17.60;99.90
1355;DHT22;671;48.972;9.276;2022-10-26T17:01:07;17.50;99.90
1355;DHT22;671;48.972;9.276;2022-10-26T17:03:34;17.50;99.90
1355;DHT22;671;48.972;9.276;2022-10-26T17:06:03;17.40;99.90
1355;DHT22;671;48.972;9.276;2022-10-26T17:08:31;17.30;99.90
1355;DHT22;671;48.972;9.276;2022-10-26T17:11:03;17.30;99.90
1355;DHT22;671;48.972;9.276;2022-10-26T17:13:30;17.20;99.90
1355;DHT22;671;48.972;9.276;2022-10-26T17:16:05;17.20;99.90
1355;DHT22;671;48.972;9.276;2022-10-26T17:18:32;17.10;99.90
1355;DHT22;671;48.972;9.276;2022-10-26T17:20:59;17.00;99.90
1355;DHT22;671;48.972;9.276;2022-10-26T17:23:26;17.00;99.90
1355;DHT22;671;48.972;9.276;2022-10-26T17:25:52;16.90;99.90
1355;DHT22;671;48.972;9.276;2022-10-26T17:28:19;16.80;99.90
1355;DHT22;671;48.972;9.276;2022-10-26T17:30:45;16.70;99.90
1355;DHT22;671;48.972;9.276;2022-10-26T17:33:12;16.60;99.90
1355;DHT22;671;48.972;9.276;2022-10-26T17:35:38;16.60;99.90
1355;DHT22;671;48.972;9.276;2022-10-26T17:38:05;16.50;99.90
1355;DHT22;671;48.972;9.276;2022-10-26T17:40:31;16.40;99.90
1355;DHT22;671;48.972;9.276;2022-10-26T17:42:58;16.40;99.90
1355;DHT22;671;48.972;9.276;2022-10-26T17:45:25;16.40;99.90
1355;DHT22;671;48.972;9.276;2022-10-26T17:47:52;16.30;99.90
1355;DHT22;671;48.972;9.276;2022-10-26T17:50:18;16.30;99.90
1355;DHT22;671;48.972;9.276;2022-10-26T17:52:45;16.20;99.90
1355;DHT22;671;48.972;9.276;2022-10-26T17:55:11;16.20;99.90
1355;DHT22;671;48.972;9.276;2022-10-26T17:57:38;16.10;99.90
1355;DHT22;671;48.972;9.276;2022-10-26T18:00:04;16.10;99.90
1355;DHT22;671;48.972;9.276;2022-10-26T18:02:31;16.00;99.90
1355;DHT22;671;48.972;9.276;2022-10-26T18:05:03;16.00;99.90
1355;DHT22;671;48.972;9.276;2022-10-26T18:07:31;16.00;99.90
1355;DHT22;671;48.972;9.276;2022-10-26T18:09:57;15.90;99.90
1355;DHT22;671;48.972;9.276;2022-10-26T18:12:23;15.90;99.90
1355;DHT22;671;48.972;9.276;2022-10-26T18:14:50;15.90;99.90
1355;DHT22;671;48.972;9.276;2022-10-26T18:17:17;15.80;99.90
1355;DHT22;671;48.972;9.276;2022-10-26T18:19:43;15.80;99.90
1355;DHT22;671;48.972;9.276;2022-10-26T18:22:09;15.80;99.90
1355;DHT22;671;48.972;9.276;2022-10-26T18:24:36;15.70;99.90
1355;DHT22;671;48.972;9.276;2022-10-26T18:27:02;15.70;99.90
1355;DHT22;671;48.972;9.276;2022-10-26T18:29:29;15.60;99.90
1355;DHT22;671;48.972;9.276;2022-10-26T18:31:55;15.50;99.90
1355;DHT22;671;48.972;9.276;2022-10-26T18:34:22;15.50;99.90
1355;DHT22;671;48.972;9.276;2022-10-26T18:36:48;15.50;99.90
1355;DHT22;671;48.972;9.276;2022-10-26T18:39:15;15.50;99.90
1355;DHT22;671;48.972;9.276;2022-10-26T18:41:41;15.40;99.90
1355;DHT22;671;48.972;9.276;2022-10-26T18:44:08;15.40;99.90
1355;DHT22;671;48.972;9.276;2022-10-26T18:46:38;15.30;99.90
1355;DHT22;671;48.972;9.276;2022-10-26T18:49:05;15.30;99.90
1355;DHT22;671;48.972;9.276;2022-10-26T18:51:33;15.20;99.90
1355;DHT22;671;48.972;9.276;2022-10-26T18:54:00;15.20;99.90
1355;DHT22;671;48.972;9.276;2022-10-26T18:56:26;15.20;99.90
1355;DHT22;671;48.972;9.276;2022-10-26T18:58:57;15.10;99.90
1355;DHT22;671;48.972;9.276;2022-10-26T19:01:33;15.10;99.90